Time;durP1;ratioP1;P1;durP2;ratioP2;P2;SDS_P1;SDS_P2;PMS_P1;PMS_P2;Temp;Humidity;BMP_temperature;BMP_pressure;BME280_temperature;BME280_humidity;BME280_pressure;Samples;Min_cycle;Max_cycle;Signal;HPM_P1;HPM_P2
2024/01/23 00:02:02;;;;;;;12.32;4.75;;;19.80;59.10;;;;;;5053941;28;20087;-55
2024/01/23 00:04:28;;;;;;;14.07;4.83;;;19.80;59.00;;;;;;5053219;28;20033;-56
2024/01/23 00:06:54;;;;;;;12.25;4.90;;;19.80;59.30;;;;;;5053476;28;20098;-58
2024/01/23 00:09:20;;;;;;;12.57;4.70;;;19.80;58.90;;;;;;5054332;28;20039;-59
2024/01/23 00:11:45;;;;;;;11.10;4.72;;;19.80;59.30;;;;;;5054430;28;20029;-56
2024/01/23 00:14:11;;;;;;;16.48;5.30;;;19.80;58.90;;;;;;5053963;28;20032;-54
2024/01/23 00:16:37;;;;;;;11.63;4.80;;;19.80;59.00;;;;;;5053553;28;20370;-56
2024/01/23 00:19:03;;;;;;;9.82;4.10;;;19.80;58.90;;;;;;5053724;28;20404;-59
2024/01/23 00:21:29;;;;;;;11.75;4.85;;;19.70;58.80;;;;;;5053198;28;20108;-58
2024/01/23 00:23:55;;;;;;;10.95;4.78;;;19.70;58.80;;;;;;5053200;28;20028;-53
2024/01/23 00:26:20;;;;;;;12.43;4.70;;;19.70;58.50;;;;;;5053542;28;20033;-56
2024/01/23 00:28:46;;;;;;;11.07;4.18;;;19.70;58.40;;;;;;5053304;28;20076;-56
2024/01/23 00:31:12;;;;;;;11.25;4.35;;;19.70;58.60;;;;;;5052242;28;20029;-58
2024/01/23 00:33:38;;;;;;;10.45;4.10;;;19.70;58.40;;;;;;5053172;28;20025;-56
2024/01/23 00:36:05;;;;;;;10.80;3.95;;;19.70;58.50;;;;;;5041324;28;20025;-54
2024/01/23 00:38:31;;;;;;;14.52;4.60;;;19.70;58.30;;;;;;5053775;28;20029;-57
2024/01/23 00:40:57;;;;;;;14.43;3.97;;;19.70;58.70;;;;;;5053813;28;20032;-57
2024/01/23 00:43:22;;;;;;;12.82;4.20;;;19.70;58.70;;;;;;5051033;28;20146;-56
2024/01/23 00:45:49;;;;;;;10.02;4.13;;;19.70;58.60;;;;;;5052284;28;20669;-57
2024/01/23 00:48:15;;;;;;;11.30;5.18;;;19.70;58.50;;;;;;5052025;28;20044;-59
2024/01/23 00:50:40;;;;;;;9.25;4.35;;;19.70;58.30;;;;;;5052711;28;20017;-55
2024/01/23 00:53:06;;;;;;;12.93;3.85;;;19.70;59.00;;;;;;5053160;28;20025;-58
2024/01/23 00:55:32;;;;;;;11.52;4.28;;;19.70;58.70;;;;;;5051804;28;20021;-59
2024/01/23 00:57:58;;;;;;;10.15;4.13;;;19.70;58.80;;;;;;5052793;28;20021;-53
2024/01/23 01:00:24;;;;;;;13.20;3.85;;;19.70;59.00;;;;;;5052868;28;20025;-58
2024/01/23 01:02:49;;;;;;;10.00;4.00;;;19.70;58.90;;;;;;5052194;28;20528;-58
2024/01/23 01:05:15;;;;;;;10.73;3.80;;;19.70;58.90;;;;;;5050823;28;20036;-57
2024/01/23 01:07:41;;;;;;;9.80;3.95;;;19.70;58.70;;;;;;5053145;28;20024;-58
2024/01/23 01:10:07;;;;;;;10.10;3.88;;;19.60;58.20;;;;;;5053246;28;20029;-54
2024/01/23 01:12:33;;;;;;;9.65;4.00;;;19.70;58.30;;;;;;5052663;28;20514;-56
2024/01/23 01:15:00;;;;;;;12.88;3.50;;;19.70;58.30;;;;;;5052679;28;20423;-59
2024/01/23 01:17:29;;;;;;;7.88;3.70;;;19.60;58.60;;;;;;5051222;28;20045;-59
2024/01/23 01:19:55;;;;;;;10.27;3.80;;;19.70;58.50;;;;;;5051909;28;20052;-58
2024/01/23 01:22:21;;;;;;;7.95;3.58;;;19.70;58.50;;;;;;5052164;28;20021;-59
2024/01/23 01:24:47;;;;;;;12.10;3.80;;;19.70;58.20;;;;;;5052130;28;20385;-59
2024/01/23 01:27:13;;;;;;;7.85;3.50;;;19.70;58.20;;;;;;5052241;28;20024;-59
2024/01/23 01:29:38;;;;;;;9.60;3.63;;;19.70;58.20;;;;;;5052411;28;20035;-59
2024/01/23 01:32:04;;;;;;;8.27;3.47;;;19.70;58.40;;;;;;5052325;28;20028;-59
2024/01/23 01:34:31;;;;;;;8.05;3.30;;;19.60;58.00;;;;;;5051155;28;20032;-59
2024/01/23 01:36:57;;;;;;;9.40;3.65;;;19.70;57.90;;;;;;5052214;28;20024;-59
2024/01/23 01:39:23;;;;;;;7.72;3.28;;;19.70;58.20;;;;;;5051384;28;20021;-58
2024/01/23 01:41:54;;;;;;;6.25;3.05;;;19.70;58.00;;;;;;5052681;28;20067;-59
2024/01/23 01:44:20;;;;;;;9.40;3.58;;;19.70;58.10;;;;;;5051565;28;20024;-59
2024/01/23 01:46:51;;;;;;;8.18;3.60;;;19.60;58.10;;;;;;5050604;28;20020;-59
2024/01/23 01:49:18;;;;;;;9.23;3.58;;;19.70;58.10;;;;;;5050066;28;20021;-56
2024/01/23 01:51:46;;;;;;;9.80;3.08;;;19.70;57.90;;;;;;5050682;28;20071;-59
2024/01/23 01:54:12;;;;;;;7.97;3.40;;;19.60;58.20;;;;;;5050272;28;20029;-57
2024/01/23 01:56:40;;;;;;;8.82;3.10;;;19.70;58.00;;;;;;5051220;28;20028;-59
2024/01/23 01:59:07;;;;;;;9.95;3.50;;;19.70;58.50;;;;;;5051360;28;20072;-56
2024/01/23 02:01:33;;;;;;;9.13;3.28;;;19.70;57.80;;;;;;5050867;28;20507;-56
2024/01/23 02:03:59;;;;;;;8.45;3.28;;;19.70;57.60;;;;;;5051460;28;20025;-59
2024/01/23 02:06:26;;;;;;;7.38;2.72;;;19.70;57.70;;;;;;5050024;28;20037;-59
2024/01/23 02:08:53;;;;;;;10.57;3.08;;;19.70;57.60;;;;;;5050378;28;20143;-58
2024/01/23 02:11:19;;;;;;;5.82;2.75;;;19.60;57.30;;;;;;5051956;28;20031;-58
2024/01/23 02:13:46;;;;;;;5.60;2.47;;;19.60;57.30;;;;;;5052036;28;20488;-57
2024/01/23 02:16:12;;;;;;;6.82;2.58;;;19.60;57.30;;;;;;5050845;28;20037;-58
2024/01/23 02:18:38;;;;;;;5.32;2.65;;;19.60;57.30;;;;;;5051439;28;20032;-59
2024/01/23 02:21:04;;;;;;;6.72;3.25;;;19.60;57.30;;;;;;5051079;28;20025;-59
2024/01/23 02:23:30;;;;;;;5.75;2.80;;;19.60;58.10;;;;;;5050704;28;20032;-57
2024/01/23 02:25:57;;;;;;;9.20;2.83;;;19.60;58.50;;;;;;5050334;28;20555;-56
2024/01/23 02:28:23;;;;;;;9.35;2.60;;;19.60;58.00;;;;;;5050643;28;20036;-59
2024/01/23 02:30:49;;;;;;;9.23;3.17;;;19.70;58.50;;;;;;5049046;28;20108;-54
2024/01/23 02:33:15;;;;;;;8.75;3.10;;;19.70;57.50;;;;;;5051224;28;20460;-59
2024/01/23 02:35:41;;;;;;;6.60;2.83;;;19.60;57.40;;;;;;5046051;28;20025;-59
2024/01/23 02:38:10;;;;;;;7.53;2.55;;;19.60;57.40;;;;;;5050922;28;20112;-59
2024/01/23 02:40:36;;;;;;;7.70;3.03;;;19.60;57.30;;;;;;5050716;28;20104;-58
2024/01/23 02:43:02;;;;;;;7.93;2.92;;;19.60;57.30;;;;;;5048715;28;20103;-57
2024/01/23 02:45:28;;;;;;;8.73;3.08;;;19.60;57.20;;;;;;5050160;28;20021;-58
2024/01/23 02:47:54;;;;;;;7.30;2.60;;;19.60;57.20;;;;;;5049294;28;20047;-56
2024/01/23 02:50:19;;;;;;;10.65;2.50;;;19.60;57.20;;;;;;5050419;28;20064;-59
2024/01/23 02:52:45;;;;;;;8.63;2.80;;;19.60;57.10;;;;;;5050878;28;20422;-53
2024/01/23 02:55:11;;;;;;;7.80;2.55;;;19.60;57.10;;;;;;5049307;28;20029;-59
2024/01/23 02:57:37;;;;;;;7.32;2.50;;;19.60;57.00;;;;;;5050367;28;20067;-56
2024/01/23 03:00:04;;;;;;;6.70;2.30;;;19.60;57.00;;;;;;5050313;28;20032;-57
2024/01/23 03:02:30;;;;;;;5.05;2.40;;;19.70;57.00;;;;;;5048531;28;20020;-59
2024/01/23 03:04:56;;;;;;;7.25;2.78;;;19.60;57.00;;;;;;5050559;28;20530;-59
2024/01/23 03:07:22;;;;;;;10.00;2.60;;;19.70;57.00;;;;;;5050679;28;20037;-58
2024/01/23 03:09:48;;;;;;;6.85;2.58;;;19.60;56.90;;;;;;5050702;28;20028;-55
2024/01/23 03:12:18;;;;;;;9.60;2.53;;;19.70;56.90;;;;;;5049584;28;20035;-56
2024/01/23 03:14:45;;;;;;;7.55;2.15;;;19.60;56.80;;;;;;5049729;28;20404;-59
2024/01/23 03:17:12;;;;;;;4.90;2.05;;;19.60;56.80;;;;;;5049617;28;20461;-57
2024/01/23 03:19:38;;;;;;;5.78;2.40;;;19.60;56.80;;;;;;5050072;28;20526;-54
2024/01/23 03:22:04;;;;;;;4.60;2.30;;;19.60;56.80;;;;;;5050166;28;20021;-54
2024/01/23 03:24:30;;;;;;;6.40;2.63;;;19.60;56.90;;;;;;5049513;28;20055;-53
2024/01/23 03:26:56;;;;;;;6.07;2.38;;;19.60;56.80;;;;;;5048966;28;20029;-57
2024/01/23 03:29:23;;;;;;;5.45;2.38;;;19.60;56.90;;;;;;5050152;28;20074;-58
2024/01/23 03:31:49;;;;;;;10.32;2.38;;;19.60;56.80;;;;;;5048326;28;20464;-56
2024/01/23 03:34:15;;;;;;;5.97;2.20;;;19.60;56.80;;;;;;5050076;28;20041;-56
2024/01/23 03:36:41;;;;;;;5.45;2.60;;;19.60;56.90;;;;;;5046960;28;20480;-56
2024/01/23 03:39:07;;;;;;;7.43;2.65;;;19.60;56.70;;;;;;5032049;28;20040;-57
2024/01/23 03:41:35;;;;;;;12.82;2.60;;;19.60;56.70;;;;;;5049359;28;20021;-59
2024/01/23 03:44:03;;;;;;;6.93;2.50;;;19.60;56.70;;;;;;5048938;28;20028;-56
2024/01/23 03:46:28;;;;;;;7.18;2.45;;;19.60;56.70;;;;;;5050504;28;20108;-58
2024/01/23 03:48:54;;;;;;;5.60;2.30;;;19.60;56.60;;;;;;5048395;28;20117;-56
2024/01/23 03:51:20;;;;;;;4.85;2.40;;;19.60;56.70;;;;;;5050314;28;20029;-58
2024/01/23 03:53:46;;;;;;;6.60;2.45;;;19.60;56.60;;;;;;5049180;28;20145;-59
2024/01/23 03:56:11;;;;;;;7.65;2.40;;;19.60;56.50;;;;;;5047228;28;20037;-59
2024/01/23 03:58:37;;;;;;;6.28;2.10;;;19.50;56.50;;;;;;5049204;28;20021;-58
2024/01/23 04:01:03;;;;;;;6.57;2.50;;;19.60;56.50;;;;;;5050274;28;20032;-59
2024/01/23 04:03:29;;;;;;;6.43;2.50;;;19.50;56.40;;;;;;5049725;28;20052;-53
2024/01/23 04:05:55;;;;;;;6.07;2.40;;;19.50;56.50;;;;;;5050363;28;20064;-52
2024/01/23 04:08:21;;;;;;;6.90;2.70;;;19.50;56.40;;;;;;5049655;28;20049;-58
2024/01/23 04:10:46;;;;;;;5.97;2.58;;;19.60;56.50;;;;;;5049854;28;20071;-55
2024/01/23 04:13:12;;;;;;;5.60;2.38;;;19.50;56.50;;;;;;5049785;28;20036;-54
2024/01/23 04:15:38;;;;;;;7.15;2.63;;;19.50;56.30;;;;;;5049068;28;20135;-56
2024/01/23 04:18:04;;;;;;;9.52;2.72;;;19.60;57.30;;;;;;5049460;28;20044;-56
2024/01/23 04:20:30;;;;;;;7.47;2.75;;;19.50;56.40;;;;;;5047906;28;20025;-54
2024/01/23 04:22:56;;;;;;;5.35;2.50;;;19.60;56.30;;;;;;5050144;28;20021;-57
2024/01/23 04:25:22;;;;;;;6.78;2.63;;;19.50;56.80;;;;;;5049526;28;20031;-57
2024/01/23 04:27:47;;;;;;;7.40;2.90;;;19.60;56.20;;;;;;5049573;28;20025;-57
2024/01/23 04:30:13;;;;;;;7.50;2.42;;;19.60;56.10;;;;;;5053404;28;20106;-58
2024/01/23 04:32:41;;;;;;;6.95;2.95;;;19.60;56.00;;;;;;5052285;28;20029;-55
2024/01/23 04:35:07;;;;;;;7.22;2.78;;;19.60;56.00;;;;;;5053394;28;20021;-55
2024/01/23 04:37:33;;;;;;;6.18;2.88;;;19.60;55.80;;;;;;5053993;28;20090;-59
2024/01/23 04:40:00;;;;;;;13.80;3.10;;;19.60;55.80;;;;;;5054050;28;20017;-58
2024/01/23 04:42:25;;;;;;;4.30;2.22;;;19.60;55.90;;;;;;5053886;28;20021;-59
2024/01/23 04:44:51;;;;;;;5.38;2.40;;;19.60;55.80;;;;;;5053719;28;20524;-56
2024/01/23 04:47:17;;;;;;;8.25;2.72;;;19.60;55.90;;;;;;5075693;22;20045;-62
2024/01/23 04:49:43;;;;;;;5.80;2.67;;;19.60;55.80;;;;;;5051681;28;20033;-63
2024/01/23 04:52:09;;;;;;;6.47;2.53;;;19.60;55.80;;;;;;5052831;28;20507;-62
2024/01/23 04:54:34;;;;;;;6.20;2.70;;;19.50;55.70;;;;;;5051183;28;20052;-62
2024/01/23 04:57:00;;;;;;;6.35;2.63;;;19.50;55.70;;;;;;5052929;28;20464;-62
2024/01/23 04:59:26;;;;;;;5.88;2.50;;;19.50;56.00;;;;;;5052883;28;20056;-61
2024/01/23 05:01:52;;;;;;;5.45;2.53;;;19.50;55.90;;;;;;5052933;28;20048;-62
2024/01/23 05:04:17;;;;;;;5.68;2.60;;;19.50;56.40;;;;;;5052712;28;20025;-62
2024/01/23 05:06:43;;;;;;;6.50;2.30;;;19.60;55.90;;;;;;5052563;28;20021;-62
2024/01/23 05:09:09;;;;;;;5.75;2.70;;;19.60;56.00;;;;;;5053620;28;20024;-62
2024/01/23 05:11:36;;;;;;;5.05;2.45;;;19.60;56.00;;;;;;5053458;28;20021;-62
2024/01/23 05:14:02;;;;;;;6.68;2.60;;;19.60;55.90;;;;;;5052007;28;20025;-62
2024/01/23 05:16:27;;;;;;;7.55;2.58;;;19.60;55.80;;;;;;5053186;28;20108;-62
2024/01/23 05:18:53;;;;;;;5.22;2.30;;;19.60;55.70;;;;;;5051976;28;20071;-62
2024/01/23 05:21:19;;;;;;;7.10;2.88;;;19.60;55.80;;;;;;5052375;28;20028;-62
2024/01/23 05:23:45;;;;;;;6.10;2.58;;;19.60;55.70;;;;;;5052729;28;20545;-62
2024/01/23 05:26:11;;;;;;;5.38;2.63;;;19.70;55.70;;;;;;5051287;28;20033;-62
2024/01/23 05:28:36;;;;;;;7.32;2.90;;;19.70;55.60;;;;;;5051165;28;20392;-62
2024/01/23 05:31:02;;;;;;;5.43;2.28;;;19.70;55.50;;;;;;5051224;28;20040;-62
2024/01/23 05:33:28;;;;;;;5.93;2.40;;;19.70;55.60;;;;;;5052256;28;20036;-62
2024/01/23 05:35:54;;;;;;;7.43;2.90;;;19.70;55.60;;;;;;5050707;28;20555;-62
2024/01/23 05:38:19;;;;;;;5.75;2.53;;;19.60;55.50;;;;;;5052067;28;20392;-62
2024/01/23 05:40:45;;;;;;;6.05;2.50;;;19.70;55.70;;;;;;5052598;28;20025;-62
2024/01/23 05:43:12;;;;;;;7.90;2.50;;;19.60;55.30;;;;;;5051474;28;20029;-62
2024/01/23 05:45:38;;;;;;;5.38;2.42;;;19.70;55.50;;;;;;5052517;28;20108;-62
2024/01/23 05:48:04;;;;;;;5.75;2.53;;;19.60;55.40;;;;;;5051045;28;20029;-62
2024/01/23 05:50:30;;;;;;;5.65;2.33;;;19.70;55.40;;;;;;5051645;28;20033;-62
2024/01/23 05:52:56;;;;;;;5.82;2.50;;;19.70;55.30;;;;;;5052030;28;20029;-62
2024/01/23 05:55:21;;;;;;;6.47;2.85;;;19.60;55.30;;;;;;5049644;28;21039;-62
2024/01/23 05:57:48;;;;;;;5.43;2.60;;;19.70;55.20;;;;;;5051091;28;20480;-62
2024/01/23 06:00:14;;;;;;;7.38;2.60;;;19.70;55.10;;;;;;5052145;28;20029;-62
2024/01/23 06:02:40;;;;;;;4.50;2.42;;;19.60;55.20;;;;;;5043715;28;20025;-62
2024/01/23 06:05:08;;;;;;;5.05;2.63;;;19.70;55.90;;;;;;5051507;28;20048;-64
2024/01/23 06:07:40;;;;;;;6.90;2.75;;;19.60;55.30;;;;;;5033667;28;20033;-62
2024/01/23 06:10:07;;;;;;;6.50;3.00;;;19.70;54.90;;;;;;5052230;28;20116;-63
2024/01/23 06:12:32;;;;;;;6.57;2.75;;;19.60;54.60;;;;;;5052100;28;20024;-63
2024/01/23 06:14:58;;;;;;;4.75;2.83;;;19.70;54.70;;;;;;5051078;28;20480;-63
2024/01/23 06:17:24;;;;;;;6.95;2.67;;;19.60;54.50;;;;;;5050399;28;20075;-63
2024/01/23 06:19:50;;;;;;;6.45;3.03;;;19.70;54.50;;;;;;5050395;28;20025;-63
2024/01/23 06:22:15;;;;;;;10.25;2.85;;;19.70;54.50;;;;;;5051321;28;20112;-63
2024/01/23 06:25:00;;;;;;;6.80;2.70;;;19.60;54.60;;;;;;5050157;28;20495;-63
2024/01/23 06:27:26;;;;;;;5.43;2.58;;;19.70;54.60;;;;;;5050176;28;20029;-63
2024/01/23 06:29:51;;;;;;;6.20;2.83;;;19.70;54.70;;;;;;5051948;28;20024;-63
2024/01/23 06:32:17;;;;;;;8.05;3.10;;;19.70;54.60;;;;;;5051043;28;20086;-63
2024/01/23 06:34:43;;;;;;;8.00;2.95;;;19.70;54.50;;;;;;5049574;28;20061;-63
2024/01/23 06:37:09;;;;;;;6.43;2.97;;;19.70;54.60;;;;;;5050572;28;20048;-63
2024/01/23 06:39:34;;;;;;;9.38;3.20;;;19.70;54.50;;;;;;5051209;28;20020;-63
2024/01/23 06:42:00;;;;;;;10.32;3.05;;;19.70;54.50;;;;;;5051325;28;20384;-63
2024/01/23 06:44:26;;;;;;;8.70;3.45;;;19.70;54.50;;;;;;5049460;28;20404;-63
2024/01/23 06:46:51;;;;;;;11.18;3.45;;;19.80;54.70;;;;;;5049156;28;20116;-63
2024/01/23 06:49:17;;;;;;;9.13;3.42;;;19.80;54.70;;;;;;5051129;28;20029;-63
2024/01/23 06:51:43;;;;;;;11.50;4.15;;;19.80;54.70;;;;;;5051002;28;20028;-63
2024/01/23 06:54:09;;;;;;;14.00;3.80;;;19.80;54.70;;;;;;5051003;28;20396;-63
2024/01/23 06:56:35;;;;;;;11.23;4.15;;;19.80;54.60;;;;;;5051225;28;20039;-63
2024/01/23 06:59:03;;;;;;;11.27;3.97;;;19.80;54.80;;;;;;5051323;28;20017;-63
2024/01/23 07:01:28;;;;;;;11.00;4.22;;;19.80;54.90;;;;;;5051199;28;20117;-63
2024/01/23 07:03:54;;;;;;;15.23;4.55;;;19.80;54.80;;;;;;5051053;28;20029;-63
2024/01/23 07:06:20;;;;;;;15.25;5.00;;;19.80;54.70;;;;;;5033577;28;20039;-63
2024/01/23 07:08:46;;;;;;;16.58;5.03;;;19.80;54.80;;;;;;5051249;28;20107;-63
2024/01/23 07:11:12;;;;;;;16.02;4.95;;;19.80;54.80;;;;;;5051421;28;20052;-63
2024/01/23 07:13:39;;;;;;;13.93;4.13;;;19.80;54.70;;;;;;5051238;28;20029;-63
2024/01/23 07:16:05;;;;;;;12.55;3.95;;;19.80;54.60;;;;;;5050785;28;20043;-63
2024/01/23 07:18:31;;;;;;;17.35;4.88;;;19.80;54.60;;;;;;5051127;28;20021;-63
2024/01/23 07:20:59;;;;;;;14.13;4.50;;;19.80;54.60;;;;;;5050909;28;20024;-63
2024/01/23 07:23:24;;;;;;;15.80;4.30;;;19.80;54.60;;;;;;5049227;28;20025;-63
2024/01/23 07:25:50;;;;;;;15.30;4.40;;;19.80;54.60;;;;;;5046970;28;20071;-63
2024/01/23 07:28:16;;;;;;;13.35;4.38;;;19.80;54.50;;;;;;5050228;28;20035;-63
2024/01/23 07:30:42;;;;;;;13.65;4.63;;;19.80;54.60;;;;;;5051125;28;20412;-63
2024/01/23 07:33:09;;;;;;;13.68;4.60;;;19.80;54.50;;;;;;5050885;28;20021;-63
2024/01/23 07:35:40;;;;;;;13.30;4.55;;;19.80;54.70;;;;;;5050562;28;20528;-63
2024/01/23 07:38:10;;;;;;;19.25;5.63;;;19.80;54.80;;;;;;5049642;28;20020;-63
2024/01/23 07:40:39;;;;;;;;;;;19.80;54.70;;;;;;5050156;28;20040;-63
2024/01/23 07:43:05;;;;;;;16.73;5.47;;;19.80;55.30;;;;;;5049126;28;20003;-62
2024/01/23 07:45:31;;;;;;;19.10;5.43;;;19.90;55.00;;;;;;5048339;28;20029;-63
2024/01/23 07:47:57;;;;;;;16.85;5.65;;;19.90;55.20;;;;;;5049079;28;20033;-63
2024/01/23 07:50:22;;;;;;;17.60;5.43;;;19.90;56.20;;;;;;5048935;28;20163;-62
2024/01/23 07:52:48;;;;;;;18.48;5.53;;;19.90;56.60;;;;;;5050527;28;20032;-63
2024/01/23 07:55:14;;;;;;;21.67;5.78;;;19.90;57.30;;;;;;5049344;28;20064;-63
2024/01/23 07:57:40;;;;;;;16.33;5.18;;;19.90;58.30;;;;;;5056981;28;20491;-63
2024/01/23 08:00:07;;;;;;;42.05;6.88;;;19.90;57.80;;;;;;5035167;28;20021;-63
2024/01/23 08:02:33;;;;;;;44.03;7.95;;;20.00;64.30;;;;;;5052932;28;20028;-63
2024/01/23 08:04:59;;;;;;;25.42;5.30;;;20.10;67.40;;;;;;5052065;28;20708;-63
2024/01/23 08:07:25;;;;;;;20.65;5.03;;;20.00;58.90;;;;;;5064390;28;20431;-62
2024/01/23 08:09:52;;;;;;;15.93;4.97;;;19.90;56.80;;;;;;5067823;28;20123;-63
2024/01/23 08:12:18;;;;;;;18.77;4.40;;;19.70;50.90;;;;;;5069489;28;20082;-63
2024/01/23 08:14:44;;;;;;;11.27;3.65;;;19.60;49.50;;;;;;5061382;28;20025;-63
2024/01/23 08:17:11;;;;;;;14.48;3.30;;;19.50;47.20;;;;;;5066374;28;20031;-63
2024/01/23 08:19:40;;;;;;;15.15;4.18;;;19.30;46.20;;;;;;5067058;28;20024;-63
2024/01/23 08:22:07;;;;;;;24.40;4.43;;;19.30;47.40;;;;;;5064563;28;20085;-63
2024/01/23 08:24:33;;;;;;;19.38;4.25;;;19.30;50.80;;;;;;5069064;28;20029;-63
2024/01/23 08:26:58;;;;;;;13.68;4.13;;;19.40;54.20;;;;;;5070102;28;20138;-63
2024/01/23 08:29:25;;;;;;;17.00;4.13;;;19.40;55.00;;;;;;5069234;28;20028;-63
2024/01/23 08:31:50;;;;;;;21.52;5.07;;;19.50;52.80;;;;;;5069988;28;20054;-63
2024/01/23 08:34:16;;;;;;;27.38;4.47;;;19.60;55.40;;;;;;5063634;28;20025;-57
2024/01/23 08:36:42;;;;;;;26.10;5.22;;;19.60;55.80;;;;;;5063818;28;20590;-62
2024/01/23 08:39:08;;;;;;;17.63;3.67;;;19.70;58.10;;;;;;5069198;28;20408;-62
2024/01/23 08:41:34;;;;;;;26.02;4.70;;;19.70;55.00;;;;;;5069443;28;20020;-60
2024/01/23 08:44:00;;;;;;;26.83;4.88;;;19.70;55.10;;;;;;5067972;28;20031;-61
2024/01/23 08:46:26;;;;;;;19.02;4.57;;;19.80;56.80;;;;;;5069781;28;20111;-59
2024/01/23 08:48:51;;;;;;;21.50;4.40;;;19.80;55.10;;;;;;5068748;28;20479;-59
2024/01/23 08:51:17;;;;;;;16.98;4.55;;;19.80;55.40;;;;;;5069282;28;20028;-60
2024/01/23 08:53:43;;;;;;;24.08;4.57;;;19.80;54.30;;;;;;5067450;28;20031;-60
2024/01/23 08:56:09;;;;;;;17.83;4.30;;;19.90;58.80;;;;;;5069048;28;20032;-60
2024/01/23 08:58:35;;;;;;;17.52;3.70;;;20.00;54.50;;;;;;5068466;28;20408;-60
2024/01/23 09:01:00;;;;;;;18.70;4.40;;;20.00;53.70;;;;;;5069243;28;20400;-60
2024/01/23 09:03:26;;;;;;;28.88;4.43;;;20.00;58.00;;;;;;5068032;28;20021;-60
2024/01/23 09:05:53;;;;;;;19.27;4.72;;;20.00;58.10;;;;;;5066742;28;20028;-61
2024/01/23 09:08:18;;;;;;;18.80;4.30;;;20.00;58.80;;;;;;5066467;28;20086;-60
2024/01/23 09:10:44;;;;;;;17.83;5.45;;;20.00;58.40;;;;;;5068017;28;20028;-60
2024/01/23 09:13:10;;;;;;;16.90;4.20;;;20.00;57.60;;;;;;5069321;28;20146;-60
2024/01/23 09:15:36;;;;;;;25.30;5.45;;;20.00;57.30;;;;;;5064198;28;20032;-60
2024/01/23 09:18:02;;;;;;;20.48;5.50;;;20.00;57.00;;;;;;5074211;28;20028;-59
2024/01/23 09:20:28;;;;;;;16.00;5.40;;;20.00;56.30;;;;;;5077560;28;20027;-60
2024/01/23 09:22:54;;;;;;;15.77;5.70;;;20.00;56.50;;;;;;5070678;28;20035;-60
2024/01/23 09:25:19;;;;;;;21.48;6.05;;;20.00;56.40;;;;;;5065480;28;20719;-60
2024/01/23 09:27:46;;;;;;;18.48;5.22;;;19.90;56.60;;;;;;5068612;28;20852;-58
2024/01/23 09:30:13;;;;;;;17.75;5.20;;;20.00;56.40;;;;;;5067845;28;20047;-59
2024/01/23 09:32:38;;;;;;;19.95;5.85;;;19.90;56.50;;;;;;5068183;28;20492;-59
2024/01/23 09:35:06;;;;;;;16.48;5.10;;;19.90;56.40;;;;;;5064436;28;20028;-59
2024/01/23 09:37:32;;;;;;;16.55;4.65;;;19.90;56.80;;;;;;5068381;28;20028;-60
2024/01/23 09:39:58;;;;;;;16.38;4.55;;;19.90;56.50;;;;;;5066822;28;20922;-60
2024/01/23 09:42:25;;;;;;;14.70;5.00;;;19.90;56.40;;;;;;5068210;28;20108;-59
2024/01/23 09:44:55;;;;;;;14.95;5.05;;;19.90;56.60;;;;;;5064714;28;20401;-60
2024/01/23 09:47:23;;;;;;;17.25;4.82;;;19.90;57.10;;;;;;5068309;28;20041;-60
2024/01/23 09:49:51;;;;;;;16.17;4.57;;;19.90;56.60;;;;;;5067031;28;20052;-61
2024/01/23 09:52:18;;;;;;;15.27;5.38;;;19.90;56.50;;;;;;5068312;28;20036;-60
2024/01/23 09:54:45;;;;;;;14.40;4.35;;;19.90;56.60;;;;;;5056588;28;20028;-60
2024/01/23 09:57:12;;;;;;;14.93;4.47;;;19.90;56.90;;;;;;5067849;28;20028;-61
2024/01/23 09:59:39;;;;;;;12.65;4.40;;;19.90;56.70;;;;;;5066172;28;21425;-59
2024/01/23 10:02:08;;;;;;;14.73;5.15;;;19.90;56.70;;;;;;5067955;28;20017;-60
2024/01/23 10:04:35;;;;;;;14.38;4.63;;;19.90;56.70;;;;;;5063333;28;20028;-60
2024/01/23 10:07:10;;;;;;;14.93;4.57;;;19.90;56.70;;;;;;5067838;28;20052;-60
2024/01/23 10:09:38;;;;;;;14.35;4.82;;;19.90;57.30;;;;;;5065550;28;20021;-58
2024/01/23 10:12:04;;;;;;;12.73;4.22;;;19.90;57.00;;;;;;5067115;28;20017;-60
2024/01/23 10:14:30;;;;;;;17.38;4.55;;;19.90;56.60;;;;;;5067488;28;20453;-58
2024/01/23 10:16:56;;;;;;;16.73;4.95;;;19.90;56.70;;;;;;5067852;28;20035;-60
2024/01/23 10:19:21;;;;;;;12.35;3.85;;;20.00;56.80;;;;;;5065052;28;20029;-60
2024/01/23 10:21:47;;;;;;;24.80;4.72;;;19.90;56.40;;;;;;5067476;28;20103;-60
2024/01/23 10:24:13;;;;;;;12.90;4.47;;;19.90;57.00;;;;;;5067141;28;20059;-57
2024/01/23 10:26:39;;;;;;;14.30;4.57;;;20.00;57.00;;;;;;5066454;28;20064;-60
2024/01/23 10:29:07;;;;;;;14.20;4.28;;;20.00;56.90;;;;;;5065511;28;20664;-61
2024/01/23 10:31:37;;;;;;;20.02;4.38;;;20.00;56.80;;;;;;5066366;28;20103;-59
2024/01/23 10:34:02;;;;;;;30.30;5.05;;;20.00;57.40;;;;;;5065958;28;20749;-61
2024/01/23 10:36:28;;;;;;;19.20;4.57;;;20.00;56.70;;;;;;5066927;28;20024;-61
2024/01/23 10:38:54;;;;;;;12.38;3.95;;;20.00;57.60;;;;;;5066467;28;20802;-61
2024/01/23 10:41:23;;;;;;;22.45;5.10;;;19.90;57.20;;;;;;5062795;28;20028;-60
2024/01/23 10:43:52;;;;;;;13.52;3.97;;;19.80;56.90;;;;;;5066540;28;20028;-60
2024/01/23 10:46:18;;;;;;;12.23;3.80;;;19.80;57.60;;;;;;5065265;28;20026;-61
2024/01/23 10:48:44;;;;;;;15.93;4.82;;;19.80;57.10;;;;;;5064365;28;20024;-62
2024/01/23 10:51:20;;;;;;;17.55;4.55;;;19.80;57.20;;;;;;5066568;28;20840;-61
2024/01/23 10:53:57;;;;;;;12.85;4.55;;;19.80;57.60;;;;;;5064038;28;20118;-61
2024/01/23 10:56:30;;;;;;;18.83;4.78;;;19.80;57.40;;;;;;5064586;28;20523;-61
2024/01/23 10:59:00;;;;;;;15.60;4.28;;;19.80;57.50;;;;;;5067173;28;20033;-59
2024/01/23 11:01:32;;;;;;;13.82;4.20;;;19.80;57.20;;;;;;5067061;28;20051;-61
2024/01/23 11:04:00;;;;;;;11.27;4.35;;;19.70;57.00;;;;;;5066834;28;20027;-61
2024/01/23 11:06:33;;;;;;;10.43;4.18;;;19.80;57.10;;;;;;5064986;28;20029;-61
2024/01/23 11:09:20;;;;;;;12.38;3.80;;;19.80;57.30;;;;;;5067090;28;20028;-61
2024/01/23 11:12:04;;;;;;;11.05;4.78;;;19.70;57.30;;;;;;5060422;28;20036;-61
2024/01/23 11:14:42;;;;;;;13.77;4.68;;;19.70;57.10;;;;;;5065165;28;20534;-61
2024/01/23 11:17:09;;;;;;;13.20;4.10;;;19.70;57.10;;;;;;5067051;28;20073;-62
2024/01/23 11:19:40;;;;;;;11.95;3.90;;;19.70;57.10;;;;;;5066785;28;20031;-62
2024/01/23 11:22:05;;;;;;;13.48;4.10;;;19.70;57.10;;;;;;5067108;28;20086;-61
2024/01/23 11:24:42;;;;;;;11.23;3.60;;;19.70;56.80;;;;;;5065606;28;20028;-62
2024/01/23 11:27:17;;;;;;;10.73;3.97;;;19.70;56.90;;;;;;5048736;28;20020;-61
2024/01/23 11:29:44;;;;;;;12.38;4.00;;;19.70;56.70;;;;;;5066423;28;20464;-61
2024/01/23 11:32:24;;;;;;;11.65;4.00;;;19.70;56.70;;;;;;5066671;28;20031;-63
2024/01/23 11:35:00;;;;;;;;;;;19.80;56.50;;;;;;5058424;28;20029;-62
2024/01/23 11:37:32;;;;;;;12.20;4.25;;;19.80;57.20;;;;;;5067668;28;19967;-62
2024/01/23 11:40:05;;;;;;;15.50;4.35;;;19.80;57.10;;;;;;5065947;28;20020;-61
2024/01/23 11:42:40;;;;;;;16.25;4.10;;;19.90;57.50;;;;;;5070475;28;20036;-62
2024/01/23 11:45:35;;;;;;;16.80;4.60;;;19.90;57.70;;;;;;5067814;28;20107;-61
2024/01/23 11:48:05;;;;;;;11.98;4.50;;;19.90;57.40;;;;;;5065659;28;20036;-62
2024/01/23 11:50:34;;;;;;;12.93;4.20;;;19.90;57.10;;;;;;5070264;28;20078;-58
2024/01/23 11:53:00;;;;;;;14.13;4.50;;;19.90;57.30;;;;;;5068597;28;20024;-59
2024/01/23 11:55:27;;;;;;;13.82;4.20;;;19.90;57.80;;;;;;5066569;28;20116;-61
2024/01/23 11:57:54;;;;;;;12.35;4.18;;;20.00;57.50;;;;;;5070320;28;20468;-60
2024/01/23 12:00:21;;;;;;;10.38;4.22;;;20.00;58.00;;;;;;5069813;28;20102;-61
2024/01/23 12:02:48;;;;;;;12.93;4.28;;;20.00;57.80;;;;;;5065397;28;20094;-63
2024/01/23 12:05:14;;;;;;;11.25;4.70;;;20.10;57.70;;;;;;5065722;28;20118;-62
2024/01/23 12:07:41;;;;;;;16.55;5.03;;;20.10;57.10;;;;;;5069774;28;20407;-62
2024/01/23 12:10:09;;;;;;;14.20;4.35;;;20.10;57.10;;;;;;5069995;28;20028;-62
2024/01/23 12:12:34;;;;;;;13.90;5.10;;;20.00;57.10;;;;;;5069807;28;20827;-62
2024/01/23 12:15:01;;;;;;;15.25;4.45;;;20.10;57.30;;;;;;5067723;28;20028;-61
2024/01/23 12:17:26;;;;;;;16.73;4.47;;;20.00;57.30;;;;;;5069715;28;20459;-62
2024/01/23 12:19:52;;;;;;;12.25;3.83;;;20.00;57.30;;;;;;5069831;28;20024;-62
2024/01/23 12:22:18;;;;;;;13.48;4.22;;;20.00;57.30;;;;;;5070222;28;20037;-63
2024/01/23 12:24:45;;;;;;;12.93;4.55;;;20.00;57.20;;;;;;5068604;28;20060;-62
2024/01/23 12:27:11;;;;;;;12.85;4.13;;;19.90;57.10;;;;;;5051751;28;20408;-61
2024/01/23 12:29:39;;;;;;;14.40;4.47;;;19.90;57.20;;;;;;5069408;28;20020;-61
2024/01/23 12:32:05;;;;;;;13.52;4.55;;;19.90;57.20;;;;;;5062182;28;20017;-61
2024/01/23 12:34:31;;;;;;;16.30;4.45;;;19.90;57.10;;;;;;5069140;28;20027;-61
2024/01/23 12:37:00;;;;;;;13.73;4.55;;;19.90;57.10;;;;;;5068330;28;20197;-60
2024/01/23 12:39:30;;;;;;;11.27;4.15;;;19.90;57.10;;;;;;5069329;28;20068;-62